createdAt,value
2017-01-07T00:00:36.519Z,54.27
2017-01-07T00:01:36.529Z,54.46
2017-01-07T00:02:36.926Z,54.52
2017-01-07T00:03:36.541Z,55.09
2017-01-07T00:04:36.931Z,55.09
2017-01-07T00:05:36.939Z,55.11
2017-01-07T00:06:36.544Z,54.36
2017-01-07T00:07:36.961Z,54.36
2017-01-07T00:08:36.953Z,54.93
2017-01-07T00:09:36.952Z,54.83
2017-01-07T00:10:36.565Z,54.74
2017-01-07T00:11:36.560Z,54.74
2017-01-07T00:12:36.565Z,53.89
2017-01-07T00:13:37.343Z,54.27
2017-01-07T00:14:36.975Z,54.64
2017-01-07T00:15:36.589Z,54.93
2017-01-07T00:16:36.980Z,54.62
2017-01-07T00:17:36.598Z,55.18
2017-01-07T00:18:36.990Z,55.18
2017-01-07T00:19:36.991Z,54.46
2017-01-07T00:20:36.594Z,54.46
2017-01-07T00:21:37.004Z,54.08
2017-01-07T00:22:36.603Z,54.64
2017-01-07T00:23:36.624Z,54.36
2017-01-07T00:24:37.010Z,54.27
2017-01-07T00:25:36.615Z,54.17
2017-01-07T00:26:37.019Z,54.27
2017-01-07T00:27:36.622Z,53.7
2017-01-07T00:28:36.633Z,53.8
2017-01-07T00:29:36.641Z,53.61
2017-01-07T00:30:37.036Z,53.7
2017-01-07T00:31:36.643Z,53.8
2017-01-07T00:32:37.045Z,53.52
2017-01-07T00:33:36.645Z,53.67
2017-01-07T00:34:37.070Z,54.24
2017-01-07T00:35:36.654Z,54.36
2017-01-07T00:36:37.063Z,54.36
2017-01-07T00:37:37.056Z,54.46
2017-01-07T00:38:36.661Z,54.27
2017-01-07T00:39:36.676Z,53.99
2017-01-07T00:40:37.075Z,53.89
2017-01-07T00:41:36.678Z,54.17
2017-01-07T00:42:37.075Z,53.89
2017-01-07T00:43:37.080Z,53.89
2017-01-07T00:44:36.710Z,53.8
2017-01-07T00:45:36.698Z,53.7
2017-01-07T00:46:37.093Z,53.61
2017-01-07T00:47:36.698Z,53.89
2017-01-07T00:48:36.709Z,54.36
2017-01-07T00:49:37.102Z,54.55
2017-01-07T00:50:36.707Z,54.55
2017-01-07T00:51:37.357Z,54.27
2017-01-07T00:52:36.897Z,53.99
2017-01-07T00:53:37.381Z,54.46
2017-01-07T00:54:37.643Z,54.36
2017-01-07T00:55:37.123Z,54.83
2017-01-07T00:56:37.169Z,54.36
2017-01-07T00:57:37.131Z,54.36
2017-01-07T00:58:37.136Z,53.52
2017-01-07T00:59:36.738Z,53.52
2017-01-07T01:00:36.740Z,53.7
2017-01-07T01:01:37.146Z,53.42
2017-01-07T01:02:36.803Z,53.61
2017-01-07T01:03:37.153Z,53.8
2017-01-07T01:04:37.155Z,53.8
2017-01-07T01:05:37.181Z,53.8
2017-01-07T01:06:37.164Z,53.99
2017-01-07T01:07:36.768Z,53.89
2017-01-07T01:08:36.781Z,54.27
2017-01-07T01:09:37.174Z,53.8
2017-01-07T01:10:36.779Z,54.17
2017-01-07T01:11:37.182Z,54.17
2017-01-07T01:12:36.788Z,54.36
2017-01-07T01:13:36.790Z,54.64
2017-01-07T01:14:37.197Z,54.64
2017-01-07T01:15:37.205Z,54.17
2017-01-07T01:16:37.254Z,54.17
2017-01-07T01:17:36.805Z,54.36
2017-01-07T01:18:36.805Z,54.93
2017-01-07T01:19:37.208Z,54.46
2017-01-07T01:20:51.706Z,53.61
2017-01-07T01:21:36.816Z,53.05
2017-01-07T01:22:37.232Z,53.7
2017-01-07T01:23:36.824Z,53.61
2017-01-07T01:24:37.225Z,53.8
2017-01-07T01:25:36.830Z,53.8
2017-01-07T01:26:36.833Z,53.61
2017-01-07T01:27:37.232Z,54.27
2017-01-07T01:28:37.239Z,54.36
2017-01-07T01:29:37.245Z,54.36
2017-01-07T01:30:36.855Z,54.17
2017-01-07T01:31:36.853Z,53.8
2017-01-07T01:32:36.888Z,54.08
2017-01-07T01:33:37.260Z,54.27
2017-01-07T01:34:36.859Z,54.36
2017-01-07T01:35:36.884Z,54.64
2017-01-07T01:36:36.873Z,54.83
2017-01-07T01:37:37.270Z,55.02
2017-01-07T01:38:37.278Z,55.4
2017-01-07T01:39:37.276Z,54.83
2017-01-07T01:40:37.282Z,55.11
2017-01-07T01:41:36.888Z,55.11
2017-01-07T01:42:37.004Z,55.21
2017-01-07T01:43:37.309Z,54.64
2017-01-07T01:44:36.896Z,54.55
2017-01-07T01:45:36.898Z,54.83
2017-01-07T01:46:36.905Z,54.64
2017-01-07T01:47:37.305Z,54.64
2017-01-07T01:48:36.917Z,55.21
2017-01-07T01:49:36.932Z,55.02
2017-01-07T01:50:36.926Z,55.11
2017-01-07T01:51:37.320Z,54.74
2017-01-07T01:52:36.924Z,55.3
2017-01-07T01:53:36.928Z,55.4
2017-01-07T01:54:36.932Z,54.64
2017-01-07T01:55:36.946Z,54.46
2017-01-07T01:56:36.941Z,54.93
2017-01-07T01:57:36.943Z,54.55
2017-01-07T01:58:37.344Z,55.02
2017-01-07T01:59:36.950Z,54.64
2017-01-07T02:00:37.352Z,54.17
2017-01-07T02:01:37.449Z,53.7
2017-01-07T02:02:36.963Z,53.7
2017-01-07T02:03:37.364Z,53.7
2017-01-07T02:04:36.966Z,53.89
2017-01-07T02:05:36.972Z,54.27
2017-01-07T02:06:36.975Z,54.36
2017-01-07T02:07:37.379Z,54.46
2017-01-07T02:08:37.383Z,53.99
2017-01-07T02:09:37.383Z,53.52
2017-01-07T02:10:36.987Z,53.52
2017-01-07T02:11:36.996Z,53.14
2017-01-07T02:12:36.997Z,52.76
2017-01-07T02:13:37.003Z,52.58
2017-01-07T02:14:37.402Z,52.01
2017-01-07T02:15:37.031Z,52.1
2017-01-07T02:16:37.012Z,52.1
2017-01-07T02:17:37.017Z,52.01
2017-01-07T02:18:37.020Z,52.01
2017-01-07T02:19:37.024Z,52.01
2017-01-07T02:20:37.429Z,52.1
2017-01-07T02:21:37.431Z,52.48
2017-01-07T02:22:37.040Z,52.76
2017-01-07T02:23:37.435Z,52.86
2017-01-07T02:24:37.439Z,52.95
2017-01-07T02:25:37.446Z,52.48
2017-01-07T02:26:37.050Z,52.1
2017-01-07T02:27:37.052Z,52.01
2017-01-07T02:28:37.059Z,51.63
2017-01-07T02:29:37.060Z,51.92
2017-01-07T02:30:37.464Z,51.73
2017-01-07T02:31:37.465Z,51.73
2017-01-07T02:32:37.477Z,51.35
2017-01-07T02:33:37.476Z,51.35
2017-01-07T02:34:37.077Z,51.35
2017-01-07T02:35:37.480Z,51.16
2017-01-07T02:36:37.487Z,51.82
2017-01-07T02:37:37.089Z,51.92
2017-01-07T02:38:37.092Z,51.44
2017-01-07T02:39:37.496Z,51.16
2017-01-07T02:40:37.499Z,51.26
2017-01-07T02:41:37.101Z,51.73
2017-01-07T02:42:37.106Z,51.82
2017-01-07T02:43:37.109Z,51.54
2017-01-07T02:44:37.113Z,51.54
2017-01-07T02:45:37.514Z,51.82
2017-01-07T02:46:37.548Z,51.63
2017-01-07T02:47:37.123Z,51.26
2017-01-07T02:48:37.530Z,52.01
2017-01-07T02:49:37.545Z,51.92
2017-01-07T02:50:37.156Z,52.1
2017-01-07T02:51:37.138Z,52.36
2017-01-07T02:52:37.540Z,52.55
2017-01-07T02:53:37.147Z,52.58
2017-01-07T02:54:37.151Z,52.29
2017-01-07T02:55:37.552Z,52.29
2017-01-07T02:56:37.155Z,52.2
2017-01-07T02:57:37.558Z,52.1
2017-01-07T02:58:37.164Z,52.01
2017-01-07T02:59:37.165Z,51.44
2017-01-07T03:00:37.567Z,51.63
2017-01-07T03:01:37.176Z,52.01
2017-01-07T03:02:37.180Z,51.73
2017-01-07T03:03:37.579Z,51.63
2017-01-07T03:04:37.182Z,51.73
2017-01-07T03:05:37.189Z,51.54
2017-01-07T03:06:37.591Z,51.54
2017-01-07T03:07:37.598Z,51.54
2017-01-07T03:08:37.597Z,51.92
2017-01-07T03:09:37.215Z,51.54
2017-01-07T03:10:37.213Z,51.63
2017-01-07T03:11:37.214Z,51.07
2017-01-07T03:12:37.214Z,51.16
2017-01-07T03:13:37.614Z,51.82
2017-01-07T03:14:37.618Z,51.82
2017-01-07T03:15:37.623Z,51.63
2017-01-07T03:16:37.626Z,51.26
2017-01-07T03:17:37.634Z,50.78
2017-01-07T03:18:37.635Z,51.16
2017-01-07T03:19:37.643Z,51.16
2017-01-07T03:20:37.241Z,50.97
2017-01-07T03:21:37.643Z,51.16
2017-01-07T03:22:37.275Z,50.97
2017-01-07T03:23:37.651Z,51.26
2017-01-07T03:24:37.654Z,51.16
2017-01-07T03:25:37.676Z,51.16
2017-01-07T03:26:37.263Z,51.16
2017-01-07T03:27:37.666Z,50.69
2017-01-07T03:28:37.670Z,51.26
2017-01-07T03:29:37.690Z,51.16
2017-01-07T03:30:37.676Z,50.97
2017-01-07T03:31:37.678Z,50.88
2017-01-07T03:32:37.682Z,51.82
2017-01-07T03:33:37.286Z,51.44
2017-01-07T03:34:37.689Z,51.73
2017-01-07T03:35:37.695Z,51.63
2017-01-07T03:36:37.297Z,51.54
2017-01-07T03:37:37.308Z,51.16
2017-01-07T03:38:37.703Z,50.59
2017-01-07T03:39:37.707Z,51.35
2017-01-07T03:40:37.314Z,51.44
2017-01-07T03:41:37.316Z,51.16
2017-01-07T03:42:37.729Z,50.97
2017-01-07T03:43:37.324Z,50.59
2017-01-07T03:44:37.727Z,50.12
2017-01-07T03:45:37.727Z,50.31
2017-01-07T03:46:37.340Z,50.31
2017-01-07T03:47:37.337Z,50.41
2017-01-07T03:48:37.342Z,50.5
2017-01-07T03:49:37.750Z,50.59
2017-01-07T03:50:37.350Z,50.31
2017-01-07T03:51:37.351Z,50.59
2017-01-07T03:52:37.360Z,50.5
2017-01-07T03:53:37.762Z,50.88
2017-01-07T03:54:37.368Z,51.16
2017-01-07T03:55:37.370Z,50.78
2017-01-07T03:56:37.771Z,51.16
2017-01-07T03:57:37.774Z,50.59
2017-01-07T03:58:37.780Z,51.23
2017-01-07T03:59:37.410Z,51.51
2017-01-07T04:00:37.387Z,51.54
2017-01-07T04:01:37.390Z,51.35
2017-01-07T04:02:37.396Z,51.79
2017-01-07T04:03:37.810Z,51.82
2017-01-07T04:04:37.801Z,51.7
2017-01-07T04:05:37.804Z,51.89
2017-01-07T04:06:37.808Z,51.79
2017-01-07T04:07:37.811Z,51.98
2017-01-07T04:08:37.817Z,51.61
2017-01-07T04:09:37.819Z,51.61
2017-01-07T04:10:37.822Z,52.17
2017-01-07T04:11:37.826Z,52.26
2017-01-07T04:12:37.432Z,52.55
2017-01-07T04:13:37.435Z,52.55
2017-01-07T04:14:37.837Z,52.39
2017-01-07T04:15:37.444Z,51.82
2017-01-07T04:16:37.848Z,51.63
2017-01-07T04:17:37.460Z,51.73
2017-01-07T04:18:37.454Z,51.35
2017-01-07T04:19:37.857Z,50.97
2017-01-07T04:20:37.460Z,50.31
2017-01-07T04:21:37.866Z,50.41
2017-01-07T04:22:37.469Z,50.69
2017-01-07T04:23:37.874Z,51.26
2017-01-07T04:24:37.875Z,51.07
2017-01-07T04:25:37.876Z,50.97
2017-01-07T04:26:37.480Z,51.26
2017-01-07T04:27:37.484Z,51.26
2017-01-07T04:28:37.886Z,51.26
2017-01-07T04:29:37.891Z,51.44
2017-01-07T04:30:37.894Z,51.07
2017-01-07T04:31:37.899Z,50.59
2017-01-07T04:32:37.504Z,50.97
2017-01-07T04:33:37.505Z,50.59
2017-01-07T04:34:37.910Z,50.88
2017-01-07T04:35:37.516Z,51.26
2017-01-07T04:36:37.923Z,51.16
2017-01-07T04:37:37.530Z,50.88
2017-01-07T04:38:37.523Z,51.16
2017-01-07T04:39:37.928Z,51.7
2017-01-07T04:40:37.531Z,51.98
2017-01-07T04:41:37.536Z,52.39
2017-01-07T04:42:37.936Z,52.1
2017-01-07T04:43:37.560Z,52.29
2017-01-07T04:44:37.547Z,52.76
2017-01-07T04:45:37.950Z,52.48
2017-01-07T04:46:37.550Z,52.67
2017-01-07T04:47:37.557Z,52.1
2017-01-07T04:48:37.560Z,52.29
2017-01-07T04:49:37.564Z,52.29
2017-01-07T04:50:37.567Z,51.92
2017-01-07T04:51:37.971Z,52.1
2017-01-07T04:52:37.574Z,52.1
2017-01-07T04:53:37.578Z,52.58
2017-01-07T04:54:37.583Z,52.39
2017-01-07T04:55:37.586Z,52.39
2017-01-07T04:56:37.590Z,52.39
2017-01-07T04:57:37.991Z,52.1
2017-01-07T04:58:37.598Z,51.63
2017-01-07T04:59:38.001Z,51.54
2017-01-07T05:00:37.603Z,51.16
2017-01-07T05:01:37.606Z,51.16
2017-01-07T05:02:37.608Z,51.82
2017-01-07T05:03:38.015Z,52.29
2017-01-07T05:04:37.619Z,52.29
2017-01-07T05:05:37.621Z,52.29
2017-01-07T05:06:37.627Z,52.58
2017-01-07T05:07:38.028Z,52.58
2017-01-07T05:08:37.633Z,52.1
2017-01-07T05:09:38.033Z,52.48
2017-01-07T05:10:37.640Z,52.1
2017-01-07T05:11:37.644Z,51.92
2017-01-07T05:12:37.647Z,51.92
2017-01-07T05:13:37.650Z,51.73
2017-01-07T05:14:38.083Z,51.63
2017-01-07T05:15:38.055Z,51.92
2017-01-07T05:16:37.664Z,51.54
2017-01-07T05:17:38.080Z,51.44
2017-01-07T05:18:37.690Z,51.92
2017-01-07T05:19:38.071Z,52.58
2017-01-07T05:20:37.678Z,53.14
2017-01-07T05:21:37.678Z,52.95
2017-01-07T05:22:38.080Z,52.29
2017-01-07T05:23:38.084Z,52.29
2017-01-07T05:24:38.088Z,51.73
2017-01-07T05:25:37.694Z,52.48
2017-01-07T05:26:38.097Z,52.67
2017-01-07T05:27:38.120Z,52.48
2017-01-07T05:28:38.103Z,52.2
2017-01-07T05:29:37.708Z,52.48
2017-01-07T05:30:37.717Z,52.76
2017-01-07T05:31:38.114Z,52.29
2017-01-07T05:32:38.118Z,51.54
2017-01-07T05:33:38.122Z,51.54
2017-01-07T05:34:37.727Z,52.29
2017-01-07T05:35:38.129Z,52.39
2017-01-07T05:36:38.134Z,53.14
2017-01-07T05:37:38.139Z,53.7
2017-01-07T05:38:37.747Z,54.17
2017-01-07T05:39:37.745Z,53.89
2017-01-07T05:40:38.157Z,53.7
2017-01-07T05:41:38.154Z,53.7
2017-01-07T05:42:37.755Z,53.61
2017-01-07T05:43:37.759Z,53.42
2017-01-07T05:44:38.160Z,52.67
2017-01-07T05:45:37.771Z,52.29
2017-01-07T05:46:38.170Z,52.2
2017-01-07T05:47:37.776Z,52.2
2017-01-07T05:48:38.201Z,52.76
2017-01-07T05:49:38.184Z,53.05
2017-01-07T05:50:37.792Z,52.67
2017-01-07T05:51:38.186Z,52.76
2017-01-07T05:52:37.791Z,52.58
2017-01-07T05:53:37.797Z,52.67
2017-01-07T05:54:38.198Z,52.01
2017-01-07T05:55:37.806Z,51.16
2017-01-07T05:56:38.203Z,51.35
2017-01-07T05:57:38.229Z,51.07
2017-01-07T05:58:38.215Z,50.97
2017-01-07T05:59:38.214Z,51.07
2017-01-07T06:00:37.819Z,51.26
2017-01-07T06:01:37.824Z,51.54
2017-01-07T06:02:37.826Z,52.1
2017-01-07T06:03:37.830Z,52.58
2017-01-07T06:04:38.233Z,51.92
2017-01-07T06:05:38.241Z,51.92
2017-01-07T06:06:38.241Z,51.35
2017-01-07T06:07:38.244Z,51.26
2017-01-07T06:08:38.270Z,51.35
2017-01-07T06:09:37.856Z,51.73
2017-01-07T06:10:37.859Z,51.92
2017-01-07T06:11:37.863Z,52.01
2017-01-07T06:12:37.864Z,52.01
2017-01-07T06:13:38.268Z,51.63
2017-01-07T06:14:37.872Z,52.01
2017-01-07T06:15:38.273Z,52.29
2017-01-07T06:16:38.279Z,52.29
2017-01-07T06:17:38.309Z,52.29
2017-01-07T06:18:38.283Z,51.63
2017-01-07T06:19:38.289Z,51.07
2017-01-07T06:20:38.292Z,51.16
2017-01-07T06:21:38.301Z,52.01
2017-01-07T06:22:37.901Z,51.35
2017-01-07T06:23:37.905Z,51.82
2017-01-07T06:24:37.908Z,52.29
2017-01-07T06:25:38.309Z,52.86
2017-01-07T06:26:37.916Z,53.23
2017-01-07T06:27:38.323Z,53.52
2017-01-07T06:28:38.321Z,53.23
2017-01-07T06:29:37.926Z,53.7
2017-01-07T06:30:37.930Z,53.7
2017-01-07T06:31:37.941Z,53.99
2017-01-07T06:32:37.955Z,54.74
2017-01-07T06:33:38.340Z,54.83
2017-01-07T06:34:37.944Z,54.74
2017-01-07T06:35:38.350Z,53.89
2017-01-07T06:36:37.952Z,53.52
2017-01-07T06:37:37.957Z,53.7
2017-01-07T06:38:38.362Z,53.61
2017-01-07T06:39:38.365Z,53.7
2017-01-07T06:40:37.972Z,53.7
2017-01-07T06:41:38.382Z,53.52
2017-01-07T06:42:38.384Z,53.42
2017-01-07T06:43:37.978Z,53.33
2017-01-07T06:44:37.981Z,53.33
2017-01-07T06:45:37.991Z,53.23
2017-01-07T06:46:37.990Z,53.33
2017-01-07T06:47:37.993Z,53.33
2017-01-07T06:48:37.998Z,53.33
2017-01-07T06:49:38.406Z,53.33
2017-01-07T06:50:38.407Z,53.61
2017-01-07T06:51:38.408Z,54.36
2017-01-07T06:52:38.011Z,54.27
2017-01-07T06:53:38.017Z,54.36
2017-01-07T06:54:38.418Z,54.46
2017-01-07T06:55:38.422Z,54.36
2017-01-07T06:56:38.030Z,54.36
2017-01-07T06:57:38.033Z,54.46
2017-01-07T06:58:38.048Z,53.99
2017-01-07T06:59:38.441Z,53.61
2017-01-07T07:00:38.443Z,53.7
2017-01-07T07:01:38.450Z,53.89
2017-01-07T07:02:38.050Z,54.83
2017-01-07T07:03:38.453Z,54.93
2017-01-07T07:04:38.460Z,54.64
2017-01-07T07:05:38.463Z,54.64
2017-01-07T07:06:38.467Z,54.36
2017-01-07T07:07:38.072Z,54.74
2017-01-07T07:08:38.074Z,54.08
2017-01-07T07:09:38.080Z,54.36
2017-01-07T07:10:38.482Z,54.17
2017-01-07T07:11:38.488Z,54.17
2017-01-07T07:12:38.099Z,54.55
2017-01-07T07:13:38.494Z,54.46
2017-01-07T07:14:38.502Z,54.64
2017-01-07T07:15:38.100Z,54.64
2017-01-07T07:16:38.502Z,54.93
2017-01-07T07:17:38.110Z,54.74
2017-01-07T07:18:38.512Z,54.17
2017-01-07T07:19:38.517Z,53.8
2017-01-07T07:20:38.124Z,53.7
2017-01-07T07:21:38.523Z,53.89
2017-01-07T07:22:38.130Z,53.7
2017-01-07T07:23:38.529Z,53.7
2017-01-07T07:24:38.136Z,54.27
2017-01-07T07:25:38.558Z,54.64
2017-01-07T07:26:38.177Z,54.55
2017-01-07T07:27:38.153Z,54.83
2017-01-07T07:28:38.155Z,54.55
2017-01-07T07:29:38.558Z,54.74
2017-01-07T07:30:38.161Z,54.17
2017-01-07T07:31:38.563Z,54.74
2017-01-07T07:32:38.169Z,54.46
2017-01-07T07:33:38.575Z,54.17
2017-01-07T07:34:38.577Z,53.8
2017-01-07T07:35:38.180Z,53.7
2017-01-07T07:36:38.186Z,53.7
2017-01-07T07:37:38.586Z,54.08
2017-01-07T07:38:38.597Z,54.27
2017-01-07T07:39:38.209Z,54.36
2017-01-07T07:40:38.603Z,53.99
2017-01-07T07:41:38.604Z,53.7
2017-01-07T07:42:38.211Z,53.61
2017-01-07T07:43:38.614Z,53.7
2017-01-07T07:44:38.220Z,53.7
2017-01-07T07:45:38.220Z,53.52
2017-01-07T07:46:38.628Z,54.36
2017-01-07T07:47:38.629Z,54.77
2017-01-07T07:48:38.633Z,54.39
2017-01-07T07:49:38.640Z,53.64
2017-01-07T07:50:38.641Z,53.73
2017-01-07T07:51:38.649Z,53.64
2017-01-07T07:52:38.667Z,53.73
2017-01-07T07:53:38.654Z,52.88
2017-01-07T07:54:38.659Z,52.69
2017-01-07T07:55:38.664Z,52.03
2017-01-07T07:56:38.667Z,52.32
2017-01-07T07:57:38.271Z,52.22
2017-01-07T07:58:38.675Z,52.03
2017-01-07T07:59:38.280Z,51.18
2017-01-07T08:00:38.688Z,51.28
2017-01-07T08:01:38.689Z,51.56
2017-01-07T08:02:38.294Z,52.22
2017-01-07T08:03:38.299Z,52.41
2017-01-07T08:04:38.304Z,51.56
2017-01-07T08:05:38.308Z,52.51
2017-01-07T08:06:38.320Z,52.13
2017-01-07T08:07:38.314Z,52.22
2017-01-07T08:08:38.720Z,51.66
2017-01-07T08:09:38.325Z,50.81
2017-01-07T08:10:38.725Z,51.28
2017-01-07T08:11:38.332Z,51.18
2017-01-07T08:12:38.738Z,50.62
2017-01-07T08:13:38.342Z,51.37
2017-01-07T08:14:38.745Z,51.18
2017-01-07T08:15:38.350Z,50.9
2017-01-07T08:16:38.783Z,51.09
2017-01-07T08:17:38.360Z,52.03
2017-01-07T08:18:38.367Z,51.84
2017-01-07T08:19:38.779Z,51.66
2017-01-07T08:20:38.772Z,51.37
2017-01-07T08:21:38.380Z,51.18
2017-01-07T08:22:38.781Z,51.75
2017-01-07T08:23:38.786Z,52.03
2017-01-07T08:24:38.793Z,52.41
2017-01-07T08:25:38.396Z,51.84
2017-01-07T08:26:38.405Z,51.84
2017-01-07T08:27:38.807Z,51.94
2017-01-07T08:28:38.812Z,53.36
2017-01-07T08:29:38.818Z,53.17
2017-01-07T08:30:38.421Z,53.17
2017-01-07T08:31:38.426Z,52.51
2017-01-07T08:32:38.435Z,52.41
2017-01-07T08:33:38.832Z,51.94
2017-01-07T08:34:38.440Z,52.22
2017-01-07T08:35:38.844Z,52.41
2017-01-07T08:36:38.471Z,52.6
2017-01-07T08:37:38.853Z,52.6
2017-01-07T08:38:38.458Z,52.98
2017-01-07T08:39:38.875Z,53.36
2017-01-07T08:40:38.491Z,53.26
2017-01-07T08:41:38.473Z,52.69
2017-01-07T08:42:38.478Z,52.32
2017-01-07T08:43:38.887Z,51.75
2017-01-07T08:44:38.887Z,51.94
2017-01-07T08:45:38.493Z,52.22
2017-01-07T08:46:38.899Z,52.13
2017-01-07T08:47:38.904Z,51.09
2017-01-07T08:48:38.906Z,50.62
2017-01-07T08:49:38.512Z,50.52
2017-01-07T08:50:38.515Z,50.62
2017-01-07T08:51:38.521Z,51.66
2017-01-07T08:52:38.926Z,51.94
2017-01-07T08:53:38.949Z,52.69
2017-01-07T08:54:38.935Z,52.69
2017-01-07T08:55:38.542Z,52.79
2017-01-07T08:56:38.546Z,51.84
2017-01-07T08:57:38.950Z,52.13
2017-01-07T08:58:38.957Z,51.94
2017-01-07T08:59:38.559Z,51.75
2017-01-07T09:00:38.966Z,52.51
2017-01-07T09:01:38.971Z,52.13
2017-01-07T09:02:38.974Z,51.28
2017-01-07T09:03:38.988Z,50.99
2017-01-07T09:04:38.588Z,51.18
2017-01-07T09:05:38.990Z,50.34
2017-01-07T09:06:38.997Z,49.87
2017-01-07T09:07:39.009Z,49.87
2017-01-07T09:08:39.007Z,50.05
2017-01-07T09:09:38.616Z,50.08
2017-01-07T09:10:38.617Z,50.84
2017-01-07T09:11:39.023Z,50.36
2017-01-07T09:12:38.629Z,49.8
2017-01-07T09:13:39.048Z,48.57
2017-01-07T09:14:39.041Z,47.81
2017-01-07T09:15:39.045Z,48
2017-01-07T09:16:39.049Z,48.57
2017-01-07T09:17:39.057Z,48.66
2017-01-07T09:18:39.059Z,48.85
2017-01-07T09:19:39.068Z,48.76
2017-01-07T09:20:38.677Z,48.95
2017-01-07T09:21:39.077Z,49.8
2017-01-07T09:22:39.083Z,49.7
2017-01-07T09:23:38.687Z,49.7
2017-01-07T09:24:39.094Z,49.99
2017-01-07T09:25:38.699Z,49.89
2017-01-07T09:26:38.705Z,49.7
2017-01-07T09:27:38.719Z,49.8
2017-01-07T09:28:38.729Z,49.8
2017-01-07T09:29:38.724Z,49.61
2017-01-07T09:30:38.727Z,49.7
2017-01-07T09:31:39.130Z,49.7
2017-01-07T09:32:38.738Z,49.7
2017-01-07T09:33:39.143Z,49.89
2017-01-07T09:34:39.147Z,49.61
2017-01-07T09:35:39.154Z,49.61
2017-01-07T09:36:39.160Z,49.89
2017-01-07T09:37:38.767Z,49.89
2017-01-07T09:38:39.171Z,48.57
2017-01-07T09:39:39.175Z,48.1
2017-01-07T09:40:39.183Z,48.1
2017-01-07T09:41:39.195Z,48.1
2017-01-07T09:42:39.194Z,48.1
2017-01-07T09:43:38.801Z,48.1
2017-01-07T09:44:38.807Z,48.76
2017-01-07T09:45:39.212Z,48.76
2017-01-07T09:46:38.816Z,48.57
2017-01-07T09:47:39.225Z,48.57
2017-01-07T09:48:38.831Z,48.47
2017-01-07T09:49:39.234Z,48
2017-01-07T09:50:39.242Z,48.19
2017-01-07T09:51:39.249Z,47.72
2017-01-07T09:52:39.254Z,48.29
2017-01-07T09:53:38.865Z,48.19
2017-01-07T09:54:39.326Z,48.66
2017-01-07T09:55:39.271Z,48.57
2017-01-07T09:56:38.880Z,48.57
2017-01-07T09:57:38.883Z,48.19
2017-01-07T09:58:39.294Z,48.38
2017-01-07T09:59:39.295Z,47.53
2017-01-07T10:00:39.301Z,47.44
2017-01-07T10:01:39.307Z,47.34
2017-01-07T10:02:39.312Z,47.34
2017-01-07T10:03:39.320Z,47.53
2017-01-07T10:04:39.326Z,48
2017-01-07T10:05:39.332Z,48
2017-01-07T10:06:39.338Z,48.66
2017-01-07T10:07:39.346Z,48.47
2017-01-07T10:08:39.358Z,48.95
2017-01-07T10:09:39.356Z,48.76
2017-01-07T10:10:39.363Z,49.04
2017-01-07T10:11:39.466Z,49.7
2017-01-07T10:12:38.978Z,49.61
2017-01-07T10:13:39.380Z,49.51
2017-01-07T10:14:39.395Z,49.82
2017-01-07T10:15:38.996Z,49.82
2017-01-07T10:16:39.002Z,50.08
2017-01-07T10:17:39.009Z,50.1
2017-01-07T10:18:39.015Z,50.08
2017-01-07T10:19:39.421Z,50.48
2017-01-07T10:20:39.436Z,50.48
2017-01-07T10:21:39.037Z,50.86
2017-01-07T10:22:39.437Z,51.14
2017-01-07T10:23:39.046Z,50.86
2017-01-07T10:24:39.452Z,50.2
2017-01-07T10:25:39.061Z,50.76
2017-01-07T10:26:39.066Z,50.2
2017-01-07T10:27:39.474Z,50.1
2017-01-07T10:28:39.079Z,51.14
2017-01-07T10:29:39.485Z,51.14
2017-01-07T10:30:39.496Z,51.24
2017-01-07T10:31:39.101Z,51.24
2017-01-07T10:32:39.106Z,51.81
2017-01-07T10:33:39.511Z,51.81
2017-01-07T10:34:39.121Z,51.99
2017-01-07T10:35:39.125Z,52.28
2017-01-07T10:36:39.531Z,52.47
2017-01-07T10:37:39.139Z,52.18
2017-01-07T10:38:39.544Z,52.47
2017-01-07T10:39:39.553Z,52.09
2017-01-07T10:40:39.160Z,52.28
2017-01-07T10:41:39.164Z,52.09
2017-01-07T10:42:39.191Z,52.09
2017-01-07T10:43:39.577Z,51.24
2017-01-07T10:44:39.185Z,50.95
2017-01-07T10:45:39.593Z,51.71
2017-01-07T10:46:39.600Z,51.62
2017-01-07T10:47:39.603Z,51.9
2017-01-07T10:48:39.214Z,52.37
2017-01-07T10:49:39.222Z,52.28
2017-01-07T10:50:39.229Z,51.81
2017-01-07T10:51:39.638Z,51.14
2017-01-07T10:52:39.646Z,51.24
2017-01-07T10:53:39.666Z,51.24
2017-01-07T10:54:39.258Z,51.81
2017-01-07T10:55:39.665Z,52.02
2017-01-07T10:56:39.676Z,51.26
2017-01-07T10:57:39.677Z,51.83
2017-01-07T10:58:39.689Z,51.92
2017-01-07T10:59:39.309Z,51.26
2017-01-07T11:00:39.313Z,50.51
2017-01-07T11:01:39.708Z,50.79
2017-01-07T11:02:39.314Z,50.86
2017-01-07T11:03:39.728Z,51.45
2017-01-07T11:04:39.341Z,51.07
2017-01-07T11:05:39.739Z,51.36
2017-01-07T11:06:39.347Z,51.36
2017-01-07T11:07:39.456Z,51.17
2017-01-07T11:08:39.361Z,51.07
2017-01-07T11:09:39.766Z,50.98
2017-01-07T11:10:39.802Z,50.98
2017-01-07T11:11:39.782Z,50.23
2017-01-07T11:12:39.391Z,50.6
2017-01-07T11:13:39.397Z,50.51
2017-01-07T11:14:39.806Z,50.7
2017-01-07T11:15:39.412Z,51.73
2017-01-07T11:16:39.821Z,52.02
2017-01-07T11:17:39.427Z,51.17
2017-01-07T11:18:39.438Z,51.36
2017-01-07T11:19:39.845Z,51.17
2017-01-07T11:20:39.852Z,49.76
2017-01-07T11:21:39.458Z,49.66
2017-01-07T11:22:39.467Z,49.94
2017-01-07T11:23:39.873Z,49.94
2017-01-07T11:24:39.484Z,49.85
2017-01-07T11:25:39.884Z,49.85
2017-01-07T11:26:39.494Z,49.85
2017-01-07T11:27:39.501Z,49.38
2017-01-07T11:28:39.512Z,49.85
2017-01-07T11:29:39.520Z,49.85
2017-01-07T11:30:39.926Z,50.23
2017-01-07T11:31:39.534Z,50.42
2017-01-07T11:32:39.543Z,49.76
2017-01-07T11:33:39.951Z,49.76
2017-01-07T11:34:39.557Z,49.76
2017-01-07T11:35:39.964Z,49.09
2017-01-07T11:36:39.972Z,48.9
2017-01-07T11:37:39.980Z,49.09
2017-01-07T11:38:39.988Z,49.28
2017-01-07T11:39:39.993Z,49.76
2017-01-07T11:40:40.004Z,49.66
2017-01-07T11:41:39.624Z,50.32
2017-01-07T11:42:39.618Z,50.7
2017-01-07T11:43:40.026Z,50.79
2017-01-07T11:44:40.034Z,51.17
2017-01-07T11:45:39.645Z,51.45
2017-01-07T11:46:39.650Z,51.45
2017-01-07T11:47:39.658Z,51.36
2017-01-07T11:48:39.671Z,51.45
2017-01-07T11:49:40.078Z,51.17
2017-01-07T11:50:39.680Z,50.89
2017-01-07T11:51:40.100Z,50.79
2017-01-07T11:52:40.120Z,51.17
2017-01-07T11:53:39.707Z,51.07
2017-01-07T11:54:39.713Z,51.36
2017-01-07T11:55:40.123Z,49.66
2017-01-07T11:56:40.129Z,49.19
2017-01-07T11:57:39.740Z,49.09
2017-01-07T11:58:39.763Z,48.71
2017-01-07T11:59:40.159Z,48.62
2017-01-07T12:00:39.763Z,49
2017-01-07T12:01:40.175Z,48.71
2017-01-07T12:02:39.778Z,48.81
2017-01-07T12:03:40.186Z,48.9
2017-01-07T12:04:39.795Z,48.9
2017-01-07T12:05:39.801Z,49
2017-01-07T12:06:40.210Z,49.76
2017-01-07T12:07:40.216Z,49.94
2017-01-07T12:08:40.223Z,49.09
2017-01-07T12:09:39.835Z,49
2017-01-07T12:10:40.242Z,49.94
2017-01-07T12:11:39.850Z,49.28
2017-01-07T12:12:39.855Z,49.85
2017-01-07T12:13:39.870Z,49.57
2017-01-07T12:14:40.276Z,49.19
2017-01-07T12:15:40.284Z,48.71
2017-01-07T12:16:40.308Z,49.19
2017-01-07T12:17:39.898Z,49.66
2017-01-07T12:18:39.909Z,49.19
2017-01-07T12:19:39.920Z,48.65
2017-01-07T12:20:40.323Z,49.02
2017-01-07T12:21:40.331Z,49.02
2017-01-07T12:22:39.939Z,48.18
2017-01-07T12:23:40.349Z,47.61
2017-01-07T12:24:39.959Z,48.27
2017-01-07T12:25:40.364Z,48.27
2017-01-07T12:26:40.373Z,48.36
2017-01-07T12:27:40.396Z,48.46
2017-01-07T12:28:40.388Z,47.8
2017-01-07T12:29:39.997Z,47.42
2017-01-07T12:30:40.005Z,47.13
2017-01-07T12:31:40.013Z,47.58
2017-01-07T12:32:40.055Z,47.39
2017-01-07T12:33:40.035Z,47.7
2017-01-07T12:34:40.048Z,48.74
2017-01-07T12:35:40.045Z,48.65
2017-01-07T12:36:40.063Z,48.27
2017-01-07T12:37:40.471Z,48.55
2017-01-07T12:38:40.070Z,48.18
2017-01-07T12:39:40.081Z,47.61
2017-01-07T12:40:40.107Z,47.42
2017-01-07T12:41:40.501Z,47.32
2017-01-07T12:42:40.514Z,47.61
2017-01-07T12:43:40.510Z,47.42
2017-01-07T12:44:40.130Z,47.42
2017-01-07T12:45:40.527Z,46.94
2017-01-07T12:46:40.554Z,46.66
2017-01-07T12:47:40.571Z,46.37
2017-01-07T12:48:40.553Z,46.09
2017-01-07T12:49:40.567Z,46.66
2017-01-07T12:50:40.172Z,47.51
2017-01-07T12:51:40.180Z,47.51
2017-01-07T12:52:40.589Z,47.89
2017-01-07T12:53:40.195Z,47.51
2017-01-07T12:54:40.207Z,47.42
2017-01-07T12:55:40.611Z,47.51
2017-01-07T12:56:40.226Z,47.61